Terminal Aerodrome Forecast
Issued by NWS Cleveland, OH

Home | Current Version | Previous Version | Text Only | Print | Product List | Glossary Off
Versions: 1 2 3 4 5 6 7 8 9 10 11 12 13 14 15 16 17 18 19 20 21 22 23

796
FTUS41 KCLE 301128
TAFERI
TAF
KERI 301128Z 3012/0112 10005KT P6SM SCT012 OVC020
      TEMPO 3012/3014 BKN012 OVC020
     FM301700 06011KT P6SM SCT020 BKN035 BKN150
     FM010100 09012KT 6SM -RA BR OVC035
     FM010400 10010KT 3SM -RA BR OVC030
     FM010700 09010KT 3SM -RA BR OVC010=

USA.gov is the U.S. government's official web portal to all federal, state and local government web resources and services.